sensor_id;sensor_type;location;lat;lon;timestamp;temperature;humidity
72772;SHT30;60894;42.544;1.516;2022-07-09T00:00:44;18.12;42.74
72772;SHT30;60894;42.544;1.516;2022-07-09T00:03:11;18.65;42.23
72772;SHT30;60894;42.544;1.516;2022-07-09T00:05:38;18.32;42.21
72772;SHT30;60894;42.544;1.516;2022-07-09T00:08:06;18.02;42.36
72772;SHT30;60894;42.544;1.516;2022-07-09T00:10:33;18.03;41.95
72772;SHT30;60894;42.544;1.516;2022-07-09T00:13:00;18.40;42.73
72772;SHT30;60894;42.544;1.516;2022-07-09T00:15:27;18.68;41.99
72772;SHT30;60894;42.544;1.516;2022-07-09T00:17:54;18.85;41.79
72772;SHT30;60894;42.544;1.516;2022-07-09T00:20:21;18.74;40.74
72772;SHT30;60894;42.544;1.516;2022-07-09T00:22:48;18.23;40.85
72772;SHT30;60894;42.544;1.516;2022-07-09T00:25:19;17.95;42.35
72772;SHT30;60894;42.544;1.516;2022-07-09T00:27:45;17.92;41.60
72772;SHT30;60894;42.544;1.516;2022-07-09T00:30:12;18.32;41.92
72772;SHT30;60894;42.544;1.516;2022-07-09T00:32:40;18.26;41.22
72772;SHT30;60894;42.544;1.516;2022-07-09T00:35:07;18.28;40.16
72772;SHT30;60894;42.544;1.516;2022-07-09T00:37:34;18.57;40.39
72772;SHT30;60894;42.544;1.516;2022-07-09T00:40:03;18.78;40.46
72772;SHT30;60894;42.544;1.516;2022-07-09T00:42:31;18.75;39.32
72772;SHT30;60894;42.544;1.516;2022-07-09T00:44:58;18.30;40.23
72772;SHT30;60894;42.544;1.516;2022-07-09T00:47:25;18.53;41.07
72772;SHT30;60894;42.544;1.516;2022-07-09T00:49:52;18.08;39.73
72772;SHT30;60894;42.544;1.516;2022-07-09T00:52:21;17.42;40.22
72772;SHT30;60894;42.544;1.516;2022-07-09T00:54:48;17.14;40.91
72772;SHT30;60894;42.544;1.516;2022-07-09T00:57:16;17.69;42.72
72772;SHT30;60894;42.544;1.516;2022-07-09T00:59:46;18.20;41.22
72772;SHT30;60894;42.544;1.516;2022-07-09T01:02:13;17.69;40.51
72772;SHT30;60894;42.544;1.516;2022-07-09T01:04:40;17.78;41.37
72772;SHT30;60894;42.544;1.516;2022-07-09T01:07:07;18.47;40.54
72772;SHT30;60894;42.544;1.516;2022-07-09T01:09:34;18.02;38.99
72772;SHT30;60894;42.544;1.516;2022-07-09T01:12:01;17.57;39.72
72772;SHT30;60894;42.544;1.516;2022-07-09T01:14:28;18.16;40.34
72772;SHT30;60894;42.544;1.516;2022-07-09T01:17:00;18.61;39.68
72772;SHT30;60894;42.544;1.516;2022-07-09T01:19:28;18.78;39.00
72772;SHT30;60894;42.544;1.516;2022-07-09T01:22:00;18.19;38.76
72772;SHT30;60894;42.544;1.516;2022-07-09T01:24:27;18.12;38.65
72772;SHT30;60894;42.544;1.516;2022-07-09T01:26:54;18.12;38.56
72772;SHT30;60894;42.544;1.516;2022-07-09T01:29:21;17.88;38.99
72772;SHT30;60894;42.544;1.516;2022-07-09T01:31:49;17.78;39.64
72772;SHT30;60894;42.544;1.516;2022-07-09T01:34:16;18.19;39.84
72772;SHT30;60894;42.544;1.516;2022-07-09T01:36:43;18.44;39.38
72772;SHT30;60894;42.544;1.516;2022-07-09T01:39:11;18.67;38.41
72772;SHT30;60894;42.544;1.516;2022-07-09T01:41:38;18.02;38.16
72772;SHT30;60894;42.544;1.516;2022-07-09T01:44:05;17.96;38.92
72772;SHT30;60894;42.544;1.516;2022-07-09T01:46:34;17.57;38.97
72772;SHT30;60894;42.544;1.516;2022-07-09T01:49:00;17.14;39.39
72772;SHT30;60894;42.544;1.516;2022-07-09T01:51:29;16.99;41.18
72772;SHT30;60894;42.544;1.516;2022-07-09T01:53:57;17.71;40.77
72772;SHT30;60894;42.544;1.516;2022-07-09T01:56:25;18.06;39.36
72772;SHT30;60894;42.544;1.516;2022-07-09T01:58:52;18.13;38.64
72772;SHT30;60894;42.544;1.516;2022-07-09T02:01:19;17.92;38.00
72772;SHT30;60894;42.544;1.516;2022-07-09T02:03:47;17.51;38.96
72772;SHT30;60894;42.544;1.516;2022-07-09T02:06:14;17.68;39.19
72772;SHT30;60894;42.544;1.516;2022-07-09T02:08:41;17.83;39.34
72772;SHT30;60894;42.544;1.516;2022-07-09T02:11:08;16.99;39.58
72772;SHT30;60894;42.544;1.516;2022-07-09T02:13:37;17.71;39.92
72772;SHT30;60894;42.544;1.516;2022-07-09T02:16:05;18.00;39.33
72772;SHT30;60894;42.544;1.516;2022-07-09T02:18:32;17.67;37.90
72772;SHT30;60894;42.544;1.516;2022-07-09T02:20:59;17.20;37.58
72772;SHT30;60894;42.544;1.516;2022-07-09T02:23:26;17.03;39.38
72772;SHT30;60894;42.544;1.516;2022-07-09T02:25:53;17.31;40.66
72772;SHT30;60894;42.544;1.516;2022-07-09T02:28:20;17.47;38.79
72772;SHT30;60894;42.544;1.516;2022-07-09T02:30:48;17.64;38.99
72772;SHT30;60894;42.544;1.516;2022-07-09T02:33:15;18.06;38.84
72772;SHT30;60894;42.544;1.516;2022-07-09T02:35:42;17.69;38.63
72772;SHT30;60894;42.544;1.516;2022-07-09T02:38:09;17.20;38.85
72772;SHT30;60894;42.544;1.516;2022-07-09T02:40:36;17.23;39.75
72772;SHT30;60894;42.544;1.516;2022-07-09T02:43:03;17.18;39.32
72772;SHT30;60894;42.544;1.516;2022-07-09T02:45:30;16.59;39.23
72772;SHT30;60894;42.544;1.516;2022-07-09T02:47:58;16.81;41.00
72772;SHT30;60894;42.544;1.516;2022-07-09T02:50:25;16.90;40.83
72772;SHT30;60894;42.544;1.516;2022-07-09T02:52:52;17.18;39.01
72772;SHT30;60894;42.544;1.516;2022-07-09T02:55:19;17.34;39.08
72772;SHT30;60894;42.544;1.516;2022-07-09T02:57:46;16.38;39.10
72772;SHT30;60894;42.544;1.516;2022-07-09T03:00:13;17.31;39.73
72772;SHT30;60894;42.544;1.516;2022-07-09T03:02:40;17.04;38.83
72772;SHT30;60894;42.544;1.516;2022-07-09T03:05:10;17.11;39.40
72772;SHT30;60894;42.544;1.516;2022-07-09T03:07:37;16.24;39.68
72772;SHT30;60894;42.544;1.516;2022-07-09T03:10:04;16.32;40.95
72772;SHT30;60894;42.544;1.516;2022-07-09T03:12:31;16.24;40.34
72772;SHT30;60894;42.544;1.516;2022-07-09T03:14:58;16.45;40.99
72772;SHT30;60894;42.544;1.516;2022-07-09T03:17:26;17.00;39.23
72772;SHT30;60894;42.544;1.516;2022-07-09T03:19:53;16.77;38.25
72772;SHT30;60894;42.544;1.516;2022-07-09T03:22:21;16.41;38.85
72772;SHT30;60894;42.544;1.516;2022-07-09T03:24:49;15.91;40.15
72772;SHT30;60894;42.544;1.516;2022-07-09T03:27:16;16.76;40.73
72772;SHT30;60894;42.544;1.516;2022-07-09T03:29:43;17.06;39.50
72772;SHT30;60894;42.544;1.516;2022-07-09T03:32:10;16.73;38.77
72772;SHT30;60894;42.544;1.516;2022-07-09T03:34:40;17.18;39.16
72772;SHT30;60894;42.544;1.516;2022-07-09T03:37:07;16.91;37.57
72772;SHT30;60894;42.544;1.516;2022-07-09T03:39:35;17.06;38.25
72772;SHT30;60894;42.544;1.516;2022-07-09T03:42:03;16.86;38.51
72772;SHT30;60894;42.544;1.516;2022-07-09T03:44:32;16.89;39.79
72772;SHT30;60894;42.544;1.516;2022-07-09T03:46:59;17.02;39.38
72772;SHT30;60894;42.544;1.516;2022-07-09T03:49:26;17.27;38.35
72772;SHT30;60894;42.544;1.516;2022-07-09T03:51:53;17.38;38.85
72772;SHT30;60894;42.544;1.516;2022-07-09T03:54:20;16.56;38.45
72772;SHT30;60894;42.544;1.516;2022-07-09T03:56:48;17.14;38.89
72772;SHT30;60894;42.544;1.516;2022-07-09T03:59:15;17.23;38.50
72772;SHT30;60894;42.544;1.516;2022-07-09T04:01:42;17.09;38.85
72772;SHT30;60894;42.544;1.516;2022-07-09T04:04:09;17.20;38.56
72772;SHT30;60894;42.544;1.516;2022-07-09T04:06:36;17.07;37.51
72772;SHT30;60894;42.544;1.516;2022-07-09T04:09:03;16.84;38.33
72772;SHT30;60894;42.544;1.516;2022-07-09T04:11:30;16.05;39.97
72772;SHT30;60894;42.544;1.516;2022-07-09T04:13:59;16.35;39.87
72772;SHT30;60894;42.544;1.516;2022-07-09T04:16:26;16.51;39.54
72772;SHT30;60894;42.544;1.516;2022-07-09T04:18:53;16.75;40.32
72772;SHT30;60894;42.544;1.516;2022-07-09T04:21:21;17.27;38.89
72772;SHT30;60894;42.544;1.516;2022-07-09T04:23:48;17.57;38.22
72772;SHT30;60894;42.544;1.516;2022-07-09T04:26:15;16.36;38.65
72772;SHT30;60894;42.544;1.516;2022-07-09T04:28:42;16.28;39.84
72772;SHT30;60894;42.544;1.516;2022-07-09T04:31:10;16.41;39.58
72772;SHT30;60894;42.544;1.516;2022-07-09T04:33:37;16.89;39.03
72772;SHT30;60894;42.544;1.516;2022-07-09T04:36:04;16.76;38.82
72772;SHT30;60894;42.544;1.516;2022-07-09T04:38:31;16.19;39.21
72772;SHT30;60894;42.544;1.516;2022-07-09T04:40:59;15.44;39.72
72772;SHT30;60894;42.544;1.516;2022-07-09T04:43:26;15.40;41.64
72772;SHT30;60894;42.544;1.516;2022-07-09T04:45:53;16.14;41.06
72772;SHT30;60894;42.544;1.516;2022-07-09T04:48:21;16.11;40.96
72772;SHT30;60894;42.544;1.516;2022-07-09T04:50:48;16.21;40.42
72772;SHT30;60894;42.544;1.516;2022-07-09T04:53:15;15.64;40.62
72772;SHT30;60894;42.544;1.516;2022-07-09T04:55:42;15.33;41.00
72772;SHT30;60894;42.544;1.516;2022-07-09T04:58:09;14.85;43.25
72772;SHT30;60894;42.544;1.516;2022-07-09T05:00:38;14.68;43.69
72772;SHT30;60894;42.544;1.516;2022-07-09T05:03:05;15.25;43.53
72772;SHT30;60894;42.544;1.516;2022-07-09T05:05:33;15.77;41.27
72772;SHT30;60894;42.544;1.516;2022-07-09T05:08:00;15.77;41.00
72772;SHT30;60894;42.544;1.516;2022-07-09T05:10:27;16.30;41.20
72772;SHT30;60894;42.544;1.516;2022-07-09T05:12:54;16.53;40.20
72772;SHT30;60894;42.544;1.516;2022-07-09T05:15:21;16.29;39.89
72772;SHT30;60894;42.544;1.516;2022-07-09T05:17:49;15.93;40.56
72772;SHT30;60894;42.544;1.516;2022-07-09T05:20:16;16.05;40.89
72772;SHT30;60894;42.544;1.516;2022-07-09T05:22:44;16.15;40.59
72772;SHT30;60894;42.544;1.516;2022-07-09T05:25:11;15.88;40.85
72772;SHT30;60894;42.544;1.516;2022-07-09T05:27:42;16.14;41.63
72772;SHT30;60894;42.544;1.516;2022-07-09T05:30:10;16.14;41.83
72772;SHT30;60894;42.544;1.516;2022-07-09T05:32:40;16.11;40.68
72772;SHT30;60894;42.544;1.516;2022-07-09T05:35:08;16.11;41.88
72772;SHT30;60894;42.544;1.516;2022-07-09T05:37:40;15.84;41.98
72772;SHT30;60894;42.544;1.516;2022-07-09T05:40:10;15.98;41.72
72772;SHT30;60894;42.544;1.516;2022-07-09T05:42:38;15.20;42.33
72772;SHT30;60894;42.544;1.516;2022-07-09T05:45:06;14.88;43.07
72772;SHT30;60894;42.544;1.516;2022-07-09T05:47:33;14.86;44.61
72772;SHT30;60894;42.544;1.516;2022-07-09T05:50:00;14.69;44.84
72772;SHT30;60894;42.544;1.516;2022-07-09T05:52:27;14.91;44.47
72772;SHT30;60894;42.544;1.516;2022-07-09T05:54:54;15.13;44.36
72772;SHT30;60894;42.544;1.516;2022-07-09T05:57:23;14.99;44.07
72772;SHT30;60894;42.544;1.516;2022-07-09T05:59:50;15.05;44.41
72772;SHT30;60894;42.544;1.516;2022-07-09T06:02:17;16.00;42.64
72772;SHT30;60894;42.544;1.516;2022-07-09T06:04:44;15.90;41.97
72772;SHT30;60894;42.544;1.516;2022-07-09T06:07:11;15.63;42.55
72772;SHT30;60894;42.544;1.516;2022-07-09T06:09:38;15.81;42.96
72772;SHT30;60894;42.544;1.516;2022-07-09T06:12:05;15.47;43.39
72772;SHT30;60894;42.544;1.516;2022-07-09T06:14:37;15.61;43.12
72772;SHT30;60894;42.544;1.516;2022-07-09T06:17:04;15.76;42.52
72772;SHT30;60894;42.544;1.516;2022-07-09T06:19:32;15.74;43.50
72772;SHT30;60894;42.544;1.516;2022-07-09T06:22:00;16.17;43.30
72772;SHT30;60894;42.544;1.516;2022-07-09T06:24:27;15.77;41.79
72772;SHT30;60894;42.544;1.516;2022-07-09T06:26:55;15.77;41.26
72772;SHT30;60894;42.544;1.516;2022-07-09T06:29:22;15.91;43.37
72772;SHT30;60894;42.544;1.516;2022-07-09T06:31:50;15.80;44.43
72772;SHT30;60894;42.544;1.516;2022-07-09T06:34:17;16.11;43.76
72772;SHT30;60894;42.544;1.516;2022-07-09T06:36:44;16.33;42.51
72772;SHT30;60894;42.544;1.516;2022-07-09T06:39:11;16.58;42.11
72772;SHT30;60894;42.544;1.516;2022-07-09T06:42:03;16.69;41.74
72772;SHT30;60894;42.544;1.516;2022-07-09T06:44:30;16.62;42.19
72772;SHT30;60894;42.544;1.516;2022-07-09T06:46:59;16.63;42.19
72772;SHT30;60894;42.544;1.516;2022-07-09T06:49:28;16.42;42.81
72772;SHT30;60894;42.544;1.516;2022-07-09T06:51:57;16.25;41.88
72772;SHT30;60894;42.544;1.516;2022-07-09T06:54:25;16.33;42.51
72772;SHT30;60894;42.544;1.516;2022-07-09T06:56:52;16.69;42.63
72772;SHT30;60894;42.544;1.516;2022-07-09T06:59:19;16.89;41.48
72772;SHT30;60894;42.544;1.516;2022-07-09T07:01:47;16.94;41.73
72772;SHT30;60894;42.544;1.516;2022-07-09T07:04:16;17.07;41.56
72772;SHT30;60894;42.544;1.516;2022-07-09T07:06:43;17.27;40.82
72772;SHT30;60894;42.544;1.516;2022-07-09T07:09:12;17.37;40.47
72772;SHT30;60894;42.544;1.516;2022-07-09T07:11:39;17.50;39.54
72772;SHT30;60894;42.544;1.516;2022-07-09T07:14:07;17.44;39.44
72772;SHT30;60894;42.544;1.516;2022-07-09T07:16:34;17.62;38.97
72772;SHT30;60894;42.544;1.516;2022-07-09T07:19:01;17.65;39.54
72772;SHT30;60894;42.544;1.516;2022-07-09T07:21:29;17.77;39.09
72772;SHT30;60894;42.544;1.516;2022-07-09T07:23:56;17.75;39.61
72772;SHT30;60894;42.544;1.516;2022-07-09T07:26:23;17.89;38.93
72772;SHT30;60894;42.544;1.516;2022-07-09T07:28:50;17.98;37.46
72772;SHT30;60894;42.544;1.516;2022-07-09T07:31:17;17.95;40.67
72772;SHT30;60894;42.544;1.516;2022-07-09T07:33:44;18.03;39.54
72772;SHT30;60894;42.544;1.516;2022-07-09T07:36:12;18.22;38.89
72772;SHT30;60894;42.544;1.516;2022-07-09T07:38:44;18.39;37.86
72772;SHT30;60894;42.544;1.516;2022-07-09T07:41:13;18.33;37.79
72772;SHT30;60894;42.544;1.516;2022-07-09T07:43:43;18.50;37.17
72772;SHT30;60894;42.544;1.516;2022-07-09T07:46:12;18.67;38.11
72772;SHT30;60894;42.544;1.516;2022-07-09T07:48:38;18.57;33.12
72772;SHT30;60894;42.544;1.516;2022-07-09T07:51:06;18.61;36.05
72772;SHT30;60894;42.544;1.516;2022-07-09T07:53:33;18.78;36.88
72772;SHT30;60894;42.544;1.516;2022-07-09T07:56:04;18.92;36.01
72772;SHT30;60894;42.544;1.516;2022-07-09T07:58:31;19.01;32.75
72772;SHT30;60894;42.544;1.516;2022-07-09T08:00:58;19.11;34.22
72772;SHT30;60894;42.544;1.516;2022-07-09T08:03:26;19.18;32.94
72772;SHT30;60894;42.544;1.516;2022-07-09T08:05:53;19.29;33.34
72772;SHT30;60894;42.544;1.516;2022-07-09T08:08:20;19.42;31.89
72772;SHT30;60894;42.544;1.516;2022-07-09T08:10:47;19.52;33.32
72772;SHT30;60894;42.544;1.516;2022-07-09T08:13:16;19.58;31.09
72772;SHT30;60894;42.544;1.516;2022-07-09T08:15:43;19.77;33.70
72772;SHT30;60894;42.544;1.516;2022-07-09T08:18:10;19.89;32.28
72772;SHT30;60894;42.544;1.516;2022-07-09T08:20:39;19.90;31.74
72772;SHT30;60894;42.544;1.516;2022-07-09T08:23:07;20.01;31.80
72772;SHT30;60894;42.544;1.516;2022-07-09T08:25:34;20.20;31.50
72772;SHT30;60894;42.544;1.516;2022-07-09T08:28:01;20.32;31.03
72772;SHT30;60894;42.544;1.516;2022-07-09T08:30:29;20.47;32.18
72772;SHT30;60894;42.544;1.516;2022-07-09T08:32:56;20.71;33.19
72772;SHT30;60894;42.544;1.516;2022-07-09T08:35:24;20.82;34.67
72772;SHT30;60894;42.544;1.516;2022-07-09T08:37:51;20.99;35.29
72772;SHT30;60894;42.544;1.516;2022-07-09T08:40:19;20.99;34.24
72772;SHT30;60894;42.544;1.516;2022-07-09T08:42:47;21.14;35.34
72772;SHT30;60894;42.544;1.516;2022-07-09T08:45:16;21.29;35.39
72772;SHT30;60894;42.544;1.516;2022-07-09T08:47:45;21.39;33.09
72772;SHT30;60894;42.544;1.516;2022-07-09T08:50:12;21.58;33.96
72772;SHT30;60894;42.544;1.516;2022-07-09T08:52:41;21.90;31.04
72772;SHT30;60894;42.544;1.516;2022-07-09T08:55:09;22.09;32.57
72772;SHT30;60894;42.544;1.516;2022-07-09T08:57:36;22.12;31.82
72772;SHT30;60894;42.544;1.516;2022-07-09T09:00:04;22.32;32.25
72772;SHT30;60894;42.544;1.516;2022-07-09T09:02:35;22.48;33.38
72772;SHT30;60894;42.544;1.516;2022-07-09T09:05:10;22.66;31.65
72772;SHT30;60894;42.544;1.516;2022-07-09T09:07:37;22.73;32.30
72772;SHT30;60894;42.544;1.516;2022-07-09T09:10:05;22.90;30.41
72772;SHT30;60894;42.544;1.516;2022-07-09T09:12:32;23.06;31.12
72772;SHT30;60894;42.544;1.516;2022-07-09T09:14:59;23.33;25.68
72772;SHT30;60894;42.544;1.516;2022-07-09T09:17:26;23.66;24.12
72772;SHT30;60894;42.544;1.516;2022-07-09T09:19:53;23.92;30.82
72772;SHT30;60894;42.544;1.516;2022-07-09T09:22:21;24.09;29.92
72772;SHT30;60894;42.544;1.516;2022-07-09T09:24:51;24.29;25.10
72772;SHT30;60894;42.544;1.516;2022-07-09T09:27:27;24.54;26.95
72772;SHT30;60894;42.544;1.516;2022-07-09T09:29:58;24.75;24.05
72772;SHT30;60894;42.544;1.516;2022-07-09T09:32:25;25.04;20.57
72772;SHT30;60894;42.544;1.516;2022-07-09T09:34:52;25.25;19.61
72772;SHT30;60894;42.544;1.516;2022-07-09T09:37:28;25.58;18.82
72772;SHT30;60894;42.544;1.516;2022-07-09T09:39:55;25.72;18.40
72772;SHT30;60894;42.544;1.516;2022-07-09T09:42:25;25.89;17.52
72772;SHT30;60894;42.544;1.516;2022-07-09T09:44:52;26.13;17.50
72772;SHT30;60894;42.544;1.516;2022-07-09T09:47:23;26.25;17.24
72772;SHT30;60894;42.544;1.516;2022-07-09T09:49:50;26.30;16.17
72772;SHT30;60894;42.544;1.516;2022-07-09T09:52:19;26.54;16.49
72772;SHT30;60894;42.544;1.516;2022-07-09T09:54:50;26.68;16.68
72772;SHT30;60894;42.544;1.516;2022-07-09T09:57:21;26.88;17.13
72772;SHT30;60894;42.544;1.516;2022-07-09T09:59:51;26.99;15.96
72772;SHT30;60894;42.544;1.516;2022-07-09T10:02:20;27.15;16.18
72772;SHT30;60894;42.544;1.516;2022-07-09T10:04:48;27.30;16.23
72772;SHT30;60894;42.544;1.516;2022-07-09T10:07:17;27.44;15.68
72772;SHT30;60894;42.544;1.516;2022-07-09T10:09:54;27.53;15.32
72772;SHT30;60894;42.544;1.516;2022-07-09T10:12:26;27.63;15.24
72772;SHT30;60894;42.544;1.516;2022-07-09T10:14:53;27.76;15.46
72772;SHT30;60894;42.544;1.516;2022-07-09T10:17:22;27.90;15.37
72772;SHT30;60894;42.544;1.516;2022-07-09T10:20:04;27.88;15.27
72772;SHT30;60894;42.544;1.516;2022-07-09T10:22:34;27.78;14.70
72772;SHT30;60894;42.544;1.516;2022-07-09T10:25:04;27.91;14.99
72772;SHT30;60894;42.544;1.516;2022-07-09T10:27:41;28.16;14.79
72772;SHT30;60894;42.544;1.516;2022-07-09T10:30:10;28.12;15.58
72772;SHT30;60894;42.544;1.516;2022-07-09T10:33:01;28.49;15.58
72772;SHT30;60894;42.544;1.516;2022-07-09T10:35:29;28.53;15.47
72772;SHT30;60894;42.544;1.516;2022-07-09T10:37:56;28.56;14.92
72772;SHT30;60894;42.544;1.516;2022-07-09T10:40:24;28.77;14.89
72772;SHT30;60894;42.544;1.516;2022-07-09T10:43:00;28.70;14.18
72772;SHT30;60894;42.544;1.516;2022-07-09T10:45:29;28.86;14.65
72772;SHT30;60894;42.544;1.516;2022-07-09T10:47:58;29.02;13.64
72772;SHT30;60894;42.544;1.516;2022-07-09T10:50:27;29.08;14.14
72772;SHT30;60894;42.544;1.516;2022-07-09T10:52:54;29.28;13.94
72772;SHT30;60894;42.544;1.516;2022-07-09T10:55:27;29.58;13.99
72772;SHT30;60894;42.544;1.516;2022-07-09T10:57:55;29.75;14.43
72772;SHT30;60894;42.544;1.516;2022-07-09T11:00:23;29.98;14.16
72772;SHT30;60894;42.544;1.516;2022-07-09T11:02:53;30.06;13.64
72772;SHT30;60894;42.544;1.516;2022-07-09T11:05:22;30.39;14.87
72772;SHT30;60894;42.544;1.516;2022-07-09T11:08:00;30.43;14.31
72772;SHT30;60894;42.544;1.516;2022-07-09T11:10:30;30.64;13.62
72772;SHT30;60894;42.544;1.516;2022-07-09T11:12:59;30.78;13.94
72772;SHT30;60894;42.544;1.516;2022-07-09T11:15:27;30.54;13.23
72772;SHT30;60894;42.544;1.516;2022-07-09T11:17:59;30.32;13.52
72772;SHT30;60894;42.544;1.516;2022-07-09T11:20:27;30.09;14.68
72772;SHT30;60894;42.544;1.516;2022-07-09T11:22:54;30.15;14.52
72772;SHT30;60894;42.544;1.516;2022-07-09T11:25:23;30.29;16.06
72772;SHT30;60894;42.544;1.516;2022-07-09T11:27:53;30.41;14.79
72772;SHT30;60894;42.544;1.516;2022-07-09T11:30:21;30.54;14.52
72772;SHT30;60894;42.544;1.516;2022-07-09T11:32:49;30.94;14.61
72772;SHT30;60894;42.544;1.516;2022-07-09T11:35:27;30.78;14.70
72772;SHT30;60894;42.544;1.516;2022-07-09T11:37:59;31.10;14.93
72772;SHT30;60894;42.544;1.516;2022-07-09T11:40:30;30.85;14.61
72772;SHT30;60894;42.544;1.516;2022-07-09T11:42:59;30.66;15.31
72772;SHT30;60894;42.544;1.516;2022-07-09T11:45:29;31.01;15.59
72772;SHT30;60894;42.544;1.516;2022-07-09T11:48:03;31.38;15.31
72772;SHT30;60894;42.544;1.516;2022-07-09T11:50:33;31.70;15.29
72772;SHT30;60894;42.544;1.516;2022-07-09T11:53:00;31.96;14.21
72772;SHT30;60894;42.544;1.516;2022-07-09T11:55:31;31.79;14.46
72772;SHT30;60894;42.544;1.516;2022-07-09T11:58:06;31.63;14.70
72772;SHT30;60894;42.544;1.516;2022-07-09T12:00:35;31.73;14.63
72772;SHT30;60894;42.544;1.516;2022-07-09T12:03:03;31.66;14.39
72772;SHT30;60894;42.544;1.516;2022-07-09T12:05:32;31.96;14.15
72772;SHT30;60894;42.544;1.516;2022-07-09T12:08:03;32.07;14.26
72772;SHT30;60894;42.544;1.516;2022-07-09T12:10:31;32.06;13.89
72772;SHT30;60894;42.544;1.516;2022-07-09T12:13:00;31.89;13.87
72772;SHT30;60894;42.544;1.516;2022-07-09T12:15:28;31.34;13.86
72772;SHT30;60894;42.544;1.516;2022-07-09T12:17:56;31.45;14.06
72772;SHT30;60894;42.544;1.516;2022-07-09T12:20:25;31.98;13.64
72772;SHT30;60894;42.544;1.516;2022-07-09T12:22:53;31.97;12.75
72772;SHT30;60894;42.544;1.516;2022-07-09T12:25:20;32.31;13.55
72772;SHT30;60894;42.544;1.516;2022-07-09T12:27:48;32.51;12.57
72772;SHT30;60894;42.544;1.516;2022-07-09T12:30:17;32.79;12.75
72772;SHT30;60894;42.544;1.516;2022-07-09T12:32:45;32.61;13.35
72772;SHT30;60894;42.544;1.516;2022-07-09T12:35:13;32.96;12.69
72772;SHT30;60894;42.544;1.516;2022-07-09T12:37:40;33.02;12.73
72772;SHT30;60894;42.544;1.516;2022-07-09T12:40:09;32.95;13.04
72772;SHT30;60894;42.544;1.516;2022-07-09T12:42:36;33.39;13.00
72772;SHT30;60894;42.544;1.516;2022-07-09T12:45:04;33.46;13.17
72772;SHT30;60894;42.544;1.516;2022-07-09T12:47:33;33.45;12.58
72772;SHT30;60894;42.544;1.516;2022-07-09T12:50:00;33.46;12.68
72772;SHT30;60894;42.544;1.516;2022-07-09T12:52:29;33.57;12.47
72772;SHT30;60894;42.544;1.516;2022-07-09T12:54:58;33.39;12.71
72772;SHT30;60894;42.544;1.516;2022-07-09T12:57:25;33.63;12.70
72772;SHT30;60894;42.544;1.516;2022-07-09T12:59:52;33.96;12.93
72772;SHT30;60894;42.544;1.516;2022-07-09T13:02:19;34.05;13.11
72772;SHT30;60894;42.544;1.516;2022-07-09T13:04:48;33.66;13.29
72772;SHT30;60894;42.544;1.516;2022-07-09T13:07:15;33.72;13.34
72772;SHT30;60894;42.544;1.516;2022-07-09T13:09:44;34.00;13.40
72772;SHT30;60894;42.544;1.516;2022-07-09T13:12:12;33.78;13.57
72772;SHT30;60894;42.544;1.516;2022-07-09T13:14:39;33.74;13.80
72772;SHT30;60894;42.544;1.516;2022-07-09T13:17:05;33.66;13.87
72772;SHT30;60894;42.544;1.516;2022-07-09T13:19:32;33.57;14.58
72772;SHT30;60894;42.544;1.516;2022-07-09T13:22:01;33.84;15.00
72772;SHT30;60894;42.544;1.516;2022-07-09T13:24:28;33.41;14.45
72772;SHT30;60894;42.544;1.516;2022-07-09T13:26:55;33.45;14.53
72772;SHT30;60894;42.544;1.516;2022-07-09T13:29:21;33.32;15.02
72772;SHT30;60894;42.544;1.516;2022-07-09T13:31:49;33.32;14.90
72772;SHT30;60894;42.544;1.516;2022-07-09T13:34:16;33.57;14.97
72772;SHT30;60894;42.544;1.516;2022-07-09T13:36:43;33.87;14.60
72772;SHT30;60894;42.544;1.516;2022-07-09T13:39:11;33.90;14.74
72772;SHT30;60894;42.544;1.516;2022-07-09T13:41:38;33.70;14.52
72772;SHT30;60894;42.544;1.516;2022-07-09T13:44:05;33.66;14.35
72772;SHT30;60894;42.544;1.516;2022-07-09T13:46:33;33.50;14.91
72772;SHT30;60894;42.544;1.516;2022-07-09T13:49:00;33.66;14.96
72772;SHT30;60894;42.544;1.516;2022-07-09T13:51:27;33.66;14.81
72772;SHT30;60894;42.544;1.516;2022-07-09T13:53:54;33.81;15.28
72772;SHT30;60894;42.544;1.516;2022-07-09T13:56:22;33.53;15.38
72772;SHT30;60894;42.544;1.516;2022-07-09T13:58:49;34.00;15.28
72772;SHT30;60894;42.544;1.516;2022-07-09T14:01:18;34.05;14.64
72772;SHT30;60894;42.544;1.516;2022-07-09T14:03:45;33.89;15.88
72772;SHT30;60894;42.544;1.516;2022-07-09T14:06:12;34.00;15.30
72772;SHT30;60894;42.544;1.516;2022-07-09T14:08:39;34.13;15.22
72772;SHT30;60894;42.544;1.516;2022-07-09T14:11:06;33.77;15.74
72772;SHT30;60894;42.544;1.516;2022-07-09T14:13:36;33.62;16.21
72772;SHT30;60894;42.544;1.516;2022-07-09T14:16:04;33.94;16.20
72772;SHT30;60894;42.544;1.516;2022-07-09T14:18:31;34.07;15.43
72772;SHT30;60894;42.544;1.516;2022-07-09T14:20:58;33.62;15.65
72772;SHT30;60894;42.544;1.516;2022-07-09T14:23:26;33.94;15.51
72772;SHT30;60894;42.544;1.516;2022-07-09T14:25:53;34.35;15.58
72772;SHT30;60894;42.544;1.516;2022-07-09T14:28:20;34.78;15.59
72772;SHT30;60894;42.544;1.516;2022-07-09T14:30:48;34.31;14.96
72772;SHT30;60894;42.544;1.516;2022-07-09T14:33:15;34.18;15.60
72772;SHT30;60894;42.544;1.516;2022-07-09T14:35:42;34.66;15.32
72772;SHT30;60894;42.544;1.516;2022-07-09T14:38:09;34.14;15.22
72772;SHT30;60894;42.544;1.516;2022-07-09T14:40:36;34.24;15.83
72772;SHT30;60894;42.544;1.516;2022-07-09T14:43:03;34.45;15.69
72772;SHT30;60894;42.544;1.516;2022-07-09T14:45:31;33.86;15.57
72772;SHT30;60894;42.544;1.516;2022-07-09T14:48:00;34.08;15.89
72772;SHT30;60894;42.544;1.516;2022-07-09T14:50:29;34.08;15.95
72772;SHT30;60894;42.544;1.516;2022-07-09T14:52:56;34.37;15.97
72772;SHT30;60894;42.544;1.516;2022-07-09T14:55:24;34.37;15.62
72772;SHT30;60894;42.544;1.516;2022-07-09T14:57:51;34.20;16.16
72772;SHT30;60894;42.544;1.516;2022-07-09T15:00:18;34.08;16.40
72772;SHT30;60894;42.544;1.516;2022-07-09T15:02:45;34.58;15.75
72772;SHT30;60894;42.544;1.516;2022-07-09T15:05:15;34.14;15.72
72772;SHT30;60894;42.544;1.516;2022-07-09T15:07:43;33.86;16.42
72772;SHT30;60894;42.544;1.516;2022-07-09T15:10:10;34.28;16.04
72772;SHT30;60894;42.544;1.516;2022-07-09T15:12:37;34.69;15.62
72772;SHT30;60894;42.544;1.516;2022-07-09T15:15:05;34.89;15.45
72772;SHT30;60894;42.544;1.516;2022-07-09T15:17:32;34.76;15.69
72772;SHT30;60894;42.544;1.516;2022-07-09T15:19:59;34.98;16.32
72772;SHT30;60894;42.544;1.516;2022-07-09T15:22:28;34.99;15.88
72772;SHT30;60894;42.544;1.516;2022-07-09T15:24:55;34.72;16.03
72772;SHT30;60894;42.544;1.516;2022-07-09T15:27:22;34.45;16.25
72772;SHT30;60894;42.544;1.516;2022-07-09T15:29:49;34.40;16.35
72772;SHT30;60894;42.544;1.516;2022-07-09T15:32:16;34.40;16.91
72772;SHT30;60894;42.544;1.516;2022-07-09T15:34:43;34.45;16.42